Data for 12/11/2005

Time Sea-Level Adjusted Pressure Absolute Pressure Temperature Relative Humidity Dew Point   
(mb) (inHg) (mb) (inHg) (C) (F) (%) (C) (F)
00:05 1024 30.24 853 25.19 -3.9 25 75 -7.8 18
00:10 1024 30.24 853 25.19 -3.9 24.9 76 -7.6 18.3
00:15 1024 30.24 853 25.19 -3.6 25.5 74 -7.5 18.4
00:20 1024 30.24 853 25.19 -3.2 26.3 73 -7.3 18.8
00:25 1024 30.24 853 25.19 -2.8 27 71 -7.3 18.8
00:30 1024 30.24 853 25.19 -2.7 27.2 71 -7.3 18.9
00:35 1024 30.24 853 25.19 -2.6 27.3 71 -7.2 19.1
00:40 1024 30.24 853 25.19 -2.5 27.5 70 -7.2 19.1
00:45 1024 30.24 853 25.19 -2.5 27.6 70 -7.2 19.1
00:50 1024 30.24 853 25.19 -2.7 27.1 72 -7.1 19.2
00:55 1024 30.24 853 25.19 -3.1 26.3 73 -7.4 18.7
01:00 1024 30.24 853 25.19 -3.3 26.1 74 -7.3 18.9
01:05 1024 30.24 853 25.19 -3 26.6 72 -7.3 18.9
01:10 1024 30.24 853 25.19 -2.6 27.3 71 -7.1 19.2
01:15 1024 30.24 853 25.19 -2.2 28 69 -7.1 19.2
01:20 1024 30.24 853 25.19 -2.4 27.6 71 -7 19.3
01:25 1024 30.24 853 25.19 -2.9 26.7 73 -7.1 19.2
01:30 1024 30.24 853 25.19 -2.5 27.4 71 -7.1 19.2
01:35 1024 30.24 853 25.19 -2.4 27.7 70 -7.1 19.3
01:40 1024 30.24 853 25.19 -2.4 27.7 71 -7 19.4
01:45 1024 30.24 853 25.19 -2.6 27.3 72 -7 19.4
01:50 1024 30.24 853 25.19 -2.4 27.7 71 -6.9 19.5
01:55 1024 30.24 853 25.19 -2.4 27.6 72 -6.7 19.9
02:00 1024 30.24 853 25.19 -2.9 26.9 75 -6.7 20
02:05 1024 30.24 853 25.19 -3.1 26.5 74 -7 19.3
02:10 1024 30.24 853 25.19 -3 26.7 74 -7 19.3
02:15 1024 30.24 853 25.19 -2.9 26.8 73 -7.1 19.2
02:20 1024 30.24 853 25.19 -2.6 27.3 72 -6.9 19.6
02:25 1024 30.24 853 25.19 -2.4 27.6 72 -6.8 19.8
02:30 1024 30.24 853 25.19 -2.3 27.8 72 -6.7 20
02:35 1024 30.24 853 25.19 -1.9 28.5 73 -6.2 20.9
02:40 1024 30.24 853 25.19 -1.5 29.3 71 -6 21.1
02:45 1024 30.24 853 25.19 -1.5 29.3 70 -6.2 20.8
02:50 1024 30.24 853 25.19 -1.4 29.5 70 -6.1 21
02:55 1024 30.24 853 25.19 -1.3 29.7 70 -6.1 21
03:00 1024 30.24 853 25.19 -1.1 30 69 -6.1 21
03:05 1024 30.24 853 25.19 -1 30.1 68 -6.2 20.9
03:10 1024 30.24 853 25.19 -0.8 30.5 68 -6 21.2
03:15 1024 30.24 853 25.19 -0.8 30.5 67 -6.2 20.9
03:20 1024 30.24 853 25.19 -0.9 30.4 68 -6 21.2
03:25 1024 30.24 853 25.19 -1.5 29.2 70 -6.3 20.7
03:30 1024 30.24 853 25.19 -2.5 27.6 76 -6.2 20.9
03:35 1024 30.24 853 25.19 -2.9 26.8 77 -6.4 20.6
03:40 1024 30.24 853 25.19 -3.2 26.3 79 -6.3 20.6
03:45 1024 30.24 853 25.19 -2.9 26.7 77 -6.5 20.4
03:50 1024 30.24 853 25.19 -2.7 27.1 76 -6.5 20.4
03:55 1024 30.24 853 25.19 -2.5 27.5 74 -6.5 20.4
04:00 1024 30.24 853 25.19 -2.4 27.7 73 -6.6 20.1
04:05 1024 30.24 853 25.19 -2.4 27.7 74 -6.5 20.3
04:10 1024 30.24 853 25.19 -2.8 26.9 77 -6.3 20.7
04:15 1024 30.24 853 25.19 -3.4 25.9 79 -6.4 20.4
04:20 1024 30.24 853 25.19 -3.5 25.6 81 -6.3 20.6
04:25 1024 30.24 853 25.19 -3.8 25.2 81 -6.6 20.1
04:30 1024 30.24 853 25.19 -3.9 25 80 -6.8 19.7
04:35 1024 30.24 853 25.19 -3.9 24.9 81 -6.7 19.9
04:40 1024 30.24 853 25.19 -4 24.7 81 -6.8 19.8
04:45 1024 30.24 853 25.19 -3.7 25.4 79 -6.8 19.8
04:50 1024 30.24 853 25.19 -3.4 25.9 79 -6.5 20.3
04:55 1024 30.24 853 25.19 -3.2 26.2 78 -6.5 20.3
05:00 1024 30.24 853 25.19 -3.1 26.4 78 -6.5 20.4
05:05 1024 30.24 853 25.19 -3.1 26.5 79 -6.2 20.9
05:10 1024 30.24 853 25.19 -2.9 26.8 78 -6.2 20.8
05:15 1024 30.24 853 25.19 -3 26.6 79 -6.1 20.9
05:20 1024 30.24 853 25.19 -3.1 26.5 79 -6.2 20.9
05:25 1024 30.24 853 25.19 -2.8 27 78 -6.1 21
05:30 1024 30.24 853 25.19 -2.5 27.4 77 -6.1 21
05:35 1024 30.24 853 25.19 -2.7 27.2 77 -6.2 20.8
05:40 1024 30.24 853 25.19 -2.6 27.2 77 -6.2 20.9
05:45 1024 30.24 853 25.19 -2.8 27 77 -6.2 20.8
05:50 1024 30.24 853 25.19 -3.1 26.5 78 -6.4 20.5
05:55 1024 30.24 853 25.19 -3.7 25.3 82 -6.3 20.6
06:00 1024 30.24 853 25.19 -3.5 25.7 81 -6.3 20.6
06:05 1024 30.24 853 25.19 -3.4 25.9 83 -5.9 21.4
06:10 1024 30.24 853 25.19 -3.6 25.5 83 -6.1 21
06:15 1024 30.24 853 25.19 -3.4 25.9 85 -5.6 21.9
06:20 1024 30.24 853 25.19 -3.1 26.4 80 -6.1 21.1
06:25 1024 30.24 853 25.19 -3 26.5 81 -5.9 21.3
06:30 1024 30.24 853 25.19 -3.2 26.2 83 -5.7 21.8
06:35 1024 30.24 853 25.19 -2.9 26.8 80 -5.9 21.4
06:40 1024 30.24 853 25.19 -2.9 26.9 80 -5.8 21.6
06:45 1024 30.24 853 25.19 -3 26.7 81 -5.8 21.6
06:50 1024 30.24 853 25.19 -2.9 26.8 80 -5.8 21.5
06:55 1024 30.24 853 25.19 -2.4 27.6 77 -6 21.3
07:00 1024 30.24 853 25.19 -2.8 27 80 -5.7 21.7
07:05 1024 30.24 853 25.19 -3.5 25.7 83 -6 21.2
07:10 1024 30.24 853 25.19 -3.1 26.3 80 -6.1 21.1
07:15 1024 30.24 853 25.19 -2.8 26.9 80 -5.8 21.5
07:20 1024 30.24 853 25.19 -3 26.5 81 -5.9 21.4
07:25 1024 30.24 853 25.19 -3.4 25.9 83 -5.9 21.4
07:30 1024 30.24 853 25.19 -3.4 25.9 83 -5.9 21.3
07:35 1024 30.24 853 25.19 -3.3 26.1 82 -5.9 21.4
07:40 1023 30.21 853 25.19 -3.4 25.9 82 -6 21.2
07:45 1024 30.24 853 25.19 -3.7 25.4 82 -6.3 20.6
07:50 1024 30.24 853 25.19 -4.2 24.5 84 -6.5 20.2
07:55 1024 30.24 853 25.19 -4.3 24.3 84 -6.7 20
08:00 1024 30.24 853 25.19 -4.1 24.6 83 -6.7 20
08:05 1024 30.24 853 25.19 -3.9 24.9 82 -6.6 20.2
08:10 1024 30.24 853 25.19 -3.9 25.1 81 -6.6 20.1
08:15 1024 30.24 853 25.19 -4 24.9 83 -6.5 20.3
08:20 1024 30.24 853 25.19 -3.7 25.3 81 -6.6 20.2
08:25 1024 30.24 853 25.19 -3.5 25.6 80 -6.4 20.4
08:30 1024 30.24 853 25.19 -3.1 26.4 78 -6.5 20.4
08:35 1024 30.24 853 25.19 -2.4 27.7 74 -6.4 20.5
08:40 1024 30.24 853 25.19 -1.8 28.7 70 -6.7 20
08:45 1024 30.24 853 25.19 -1.4 29.5 69 -6.5 20.4
08:50 1024 30.24 853 25.19 -0.9 30.4 65 -6.6 20
08:55 1024 30.24 853 25.19 -0.5 31.1 64 -6.5 20.2
09:00 1024 30.24 853 25.19 -1 30.1 67 -6.5 20.3
09:05 1024 30.24 853 25.19 -2.5 27.6 72 -6.9 19.6
09:10 1024 30.24 853 25.19 -3 26.5 74 -7.1 19.3
09:15 1024 30.24 853 25.19 -3.1 26.4 74 -7.1 19.2
09:20 1024 30.24 853 25.19 -2.6 27.3 73 -6.9 19.6
09:25 1024 30.24 853 25.19 -2 28.4 70 -6.8 19.7
09:30 1024 30.24 853 25.19 -1.3 29.6 66 -6.8 19.7
09:35 1024 30.24 853 25.19 -1 30.2 66 -6.6 20.1
09:40 1024 30.24 853 25.19 -1 30.3 64 -6.9 19.6
09:45 1024 30.24 853 25.19 -0.2 31.6 62 -6.6 20.1
09:50 1024 30.24 853 25.19 -0.5 31.1 65 -6.3 20.7
09:55 1024 30.24 853 25.19 0.2 32.3 61 -6.4 20.4
10:00 1024 30.24 853 25.19 0.3 32.6 61 -6.3 20.6
10:05 1024 30.24 853 25.19 0.4 32.8 62 -6.1 21
10:10 1024 30.24 853 25.19 -0.4 31.2 67 -5.9 21.4
10:15 1024 30.24 853 25.19 -1 30.2 66 -6.5 20.2
10:20 1024 30.24 853 25.19 -0.4 31.3 62 -6.8 19.8
10:25 1024 30.24 853 25.19 0.4 32.7 58 -7 19.4
10:30 1024 30.24 853 25.19 1.3 34.3 55 -6.8 19.7
10:35 1024 30.24 853 25.19 1.7 35 52 -7.1 19.1
10:40 1024 30.24 853 25.19 2 35.6 52 -6.8 19.8
10:45 1024 30.24 853 25.19 2.1 35.8 51 -6.9 19.5
10:50 1024 30.24 853 25.19 2.6 36.6 50 -6.8 19.8
10:55 1024 30.24 853 25.19 2.6 36.7 50 -6.8 19.7
11:00 1024 30.24 853 25.19 3 37.4 49 -6.6 20.2
11:05 1024 30.24 853 25.19 3.6 38.4 46 -6.9 19.6
11:10 1024 30.24 853 25.19 3.3 37.9 49 -6.4 20.5
11:15 1024 30.24 853 25.19 2.7 36.9 50 -6.6 20.1
11:20 1024 30.24 853 25.19 2.6 36.6 50 -6.9 19.6
11:25 1024 30.24 853 25.19 2.3 36.2 51 -6.9 19.6
11:30 1024 30.24 853 25.19 1.9 35.5 53 -6.7 19.9
11:35 1024 30.24 853 25.19 1.2 34.2 55 -6.8 19.7
11:40 1024 30.24 853 25.19 0.8 33.4 57 -6.8 19.7
11:45 1024 30.24 853 25.19 0.9 33.7 55 -7.1 19.1
11:50 1024 30.24 853 25.19 0.9 33.6 57 -6.7 20
11:55 1023 30.21 853 25.19 1 33.8 55 -7 19.4
12:00 1023 30.21 853 25.19 1.3 34.3 56 -6.5 20.3
12:05 1023 30.21 853 25.19 1.2 34.2 56 -6.6 20.2
12:10 1023 30.21 853 25.19 1.4 34.5 56 -6.5 20.2
12:15 1023 30.21 853 25.19 2 35.5 54 -6.4 20.5
12:20 1023 30.21 853 25.19 2.5 36.5 52 -6.4 20.5
12:25 1023 30.21 853 25.19 3 37.5 50 -6.5 20.3
12:30 1023 30.21 853 25.19 3.2 37.7 49 -6.4 20.4
12:35 1023 30.21 852 25.16 3.5 38.3 48 -6.6 20.2
12:40 1023 30.21 852 25.16 4 39.2 47 -6.2 20.9
12:45 1023 30.21 852 25.16 3.6 38.4 48 -6.4 20.5
12:50 1023 30.21 852 25.16 3.6 38.5 48 -6.5 20.4
12:55 1023 30.21 852 25.16 3.4 38.1 49 -6.3 20.7
13:00 1023 30.21 852 25.16 3.1 37.6 50 -6.2 20.8
13:05 1023 30.21 852 25.16 3.3 37.9 50 -6.2 20.8
13:10 1023 30.21 852 25.16 3.4 38.1 50 -6 21.3
13:15 1023 30.21 852 25.16 3.2 37.8 49 -6.5 20.3
13:20 1023 30.21 852 25.16 3.4 38.2 48 -6.6 20.1
13:25 1023 30.21 852 25.16 3.8 38.8 48 -6.2 20.9
13:30 1023 30.21 852 25.16 3.6 38.5 48 -6.4 20.5
13:35 1023 30.21 852 25.16 2.7 36.8 51 -6.4 20.4
13:40 1023 30.21 852 25.16 2.6 36.7 50 -6.7 20
13:45 1023 30.21 852 25.16 2.9 37.3 50 -6.4 20.5
13:50 1023 30.21 852 25.16 3.2 37.7 49 -6.6 20.2
13:55 1023 30.21 852 25.16 3.5 38.2 50 -6 21.2
14:00 1023 30.21 852 25.16 3.5 38.2 49 -6.3 20.7
14:05 1023 30.21 852 25.16 3.9 38.9 48 -6.2 20.9
14:10 1023 30.21 852 25.16 4.5 40.2 45 -6.5 20.4
14:15 1023 30.21 852 25.16 4.9 40.8 44 -6.2 20.8
14:20 1023 30.21 852 25.16 5 40.9 45 -6 21.2
14:25 1023 30.21 852 25.16 4.8 40.6 45 -6.2 20.9
14:30 1023 30.21 852 25.16 4.9 40.8 45 -6.2 20.9
14:35 1023 30.21 852 25.16 4.6 40.4 46 -6 21.2
14:40 1023 30.21 852 25.16 4.9 40.8 45 -6.1 21.1
14:45 1023 30.21 852 25.16 5 41 45 -5.9 21.4
14:50 1023 30.21 852 25.16 4.8 40.6 46 -5.8 21.5
14:55 1023 30.21 852 25.16 4.6 40.2 46 -6 21.1
15:00 1023 30.21 852 25.16 4.6 40.3 47 -5.8 21.6
15:05 1023 30.21 852 25.16 4.8 40.7 46 -5.9 21.3
15:10 1023 30.21 852 25.16 5.1 41.2 45 -5.9 21.4
15:15 1023 30.21 852 25.16 4.9 40.9 46 -5.8 21.5
15:20 1023 30.21 852 25.16 4.9 40.9 45 -6 21.3
15:25 1023 30.21 852 25.16 4.9 40.8 44 -6.4 20.4
15:30 1023 30.21 852 25.16 4.9 40.8 45 -6.1 21.1
15:35 1023 30.21 852 25.16 4.6 40.4 46 -6 21.2
15:40 1023 30.21 852 25.16 4.4 40 46 -6.1 21.1
15:45 1023 30.21 852 25.16 4 39.2 47 -6.2 20.8
15:50 1022 30.18 852 25.16 3.3 37.9 50 -6.2 20.8
15:55 1022 30.18 852 25.16 3 37.3 49 -6.7 20
16:00 1022 30.18 852 25.16 3.1 37.6 49 -6.5 20.2
16:05 1022 30.18 852 25.16 3.4 38.1 48 -6.7 19.9
16:10 1022 30.18 852 25.16 3.2 37.8 49 -6.5 20.4
16:15 1022 30.18 852 25.16 2.7 36.8 52 -6.2 20.8
16:20 1022 30.18 852 25.16 2.6 36.6 53 -6.1 21
16:25 1022 30.18 852 25.16 2.4 36.3 54 -6 21.2
16:30 1022 30.18 852 25.16 2 35.5 58 -5.5 22.1
16:35 1022 30.18 852 25.16 0.8 33.4 64 -5.3 22.5
16:40 1022 30.18 852 25.16 0.5 32.8 65 -5.4 22.2
16:45 1022 30.18 852 25.16 -0 31.9 66 -5.6 21.9
16:50 1022 30.18 852 25.16 -0.4 31.3 67 -5.7 21.7
16:55 1022 30.18 852 25.16 -0.6 30.9 68 -5.9 21.4
17:00 1022 30.18 852 25.16 -0.8 30.6 69 -5.8 21.6
17:05 1022 30.18 852 25.16 -1.1 29.9 70 -5.9 21.3
17:10 1022 30.18 852 25.16 -1.4 29.4 72 -5.8 21.5
17:15 1022 30.18 852 25.16 -2.1 28.3 75 -5.9 21.3
17:20 1022 30.18 852 25.16 -2 28.4 73 -6.2 20.9
17:25 1022 30.18 852 25.16 -1.6 29.2 73 -5.9 21.5
17:30 1022 30.18 852 25.16 -1.5 29.2 72 -6 21.2
17:35 1022 30.18 852 25.16 -1.8 28.8 73 -6 21.2
17:40 1022 30.18 852 25.16 -2.1 28.1 75 -6.1 21.1
17:45 1022 30.18 852 25.16 -1.7 28.9 73 -6 21.2
17:50 1022 30.18 852 25.16 -1.5 29.3 71 -6.1 21.1
17:55 1022 30.18 852 25.16 -1.1 30 69 -6.1 21
18:00 1022 30.18 852 25.16 -1.1 30 69 -6 21.2
18:05 1022 30.18 852 25.16 -0.9 30.4 68 -6.1 21.1
18:10 1022 30.18 852 25.16 -1 30.3 70 -5.7 21.7
18:15 1022 30.18 852 25.16 -1.6 29.2 71 -6.2 20.9
18:20 1022 30.18 852 25.16 -2.1 28.2 74 -6.2 20.8
18:25 1022 30.18 852 25.16 -2.3 27.9 73 -6.6 20.2
18:30 1022 30.18 852 25.16 -2.7 27.1 77 -6.2 20.9
18:35 1022 30.18 852 25.16 -2.5 27.6 73 -6.6 20.1
18:40 1022 30.18 851 25.13 -2.5 27.6 75 -6.3 20.6
18:45 1022 30.18 851 25.13 -2.7 27.2 76 -6.3 20.6
18:50 1022 30.18 852 25.16 -2.4 27.6 77 -5.9 21.3
18:55 1022 30.18 852 25.16 -2.4 27.6 76 -6.1 21.1
19:00 1022 30.18 852 25.16 -1.9 28.5 73 -6.1 21
19:05 1022 30.18 852 25.16 -1.8 28.7 72 -6.2 20.8
19:10 1022 30.18 852 25.16 -2.3 27.8 73 -6.5 20.3
19:15 1022 30.18 852 25.16 -3 26.6 77 -6.5 20.3
19:20 1022 30.18 851 25.13 -2.5 27.5 75 -6.4 20.5
19:25 1022 30.18 851 25.13 -2 28.4 74 -6.1 21.1
19:30 1022 30.18 851 25.13 -2.5 27.5 76 -6.1 21
19:35 1022 30.18 851 25.13 -2.7 27.1 77 -6.2 20.9
19:40 1022 30.18 851 25.13 -2.4 27.6 75 -6.3 20.7
19:45 1022 30.18 851 25.13 -2.4 27.7 75 -6.3 20.6
19:50 1022 30.18 851 25.13 -2.9 26.8 76 -6.5 20.3
19:55 1022 30.18 851 25.13 -2.9 26.8 76 -6.5 20.3
20:00 1022 30.18 851 25.13 -2.6 27.3 75 -6.4 20.4
20:05 1022 30.18 851 25.13 -2.5 27.6 75 -6.4 20.5
20:10 1022 30.18 851 25.13 -2.3 27.9 73 -6.4 20.4
20:15 1022 30.18 851 25.13 -2.3 27.9 74 -6.4 20.5
20:20 1022 30.18 851 25.13 -2.5 27.5 74 -6.5 20.4
20:25 1022 30.18 851 25.13 -2.8 27 74 -6.7 19.9
20:30 1022 30.18 851 25.13 -2.6 27.4 73 -6.8 19.8
20:35 1022 30.18 851 25.13 -2.1 28.2 72 -6.5 20.4
20:40 1022 30.18 851 25.13 -1.9 28.7 71 -6.4 20.5
20:45 1022 30.18 851 25.13 -1.6 29.2 70 -6.3 20.6
20:50 1022 30.18 851 25.13 -1.7 29 71 -6.3 20.6
20:55 1022 30.18 851 25.13 -1.3 29.6 69 -6.2 20.8
21:00 1022 30.18 851 25.13 -1.3 29.7 69 -6.3 20.7
21:05 1022 30.18 851 25.13 -1.3 29.6 68 -6.6 20.2
21:10 1022 30.18 851 25.13 -1.5 29.3 66 -7 19.5
21:15 1022 30.18 851 25.13 -2 28.3 70 -6.9 19.6
21:20 1022 30.18 851 25.13 -2.5 27.6 72 -6.9 19.6
21:25 1022 30.18 851 25.13 -2.5 27.5 72 -6.9 19.5
21:30 1022 30.18 851 25.13 -2.5 27.5 72 -6.9 19.6
21:35 1022 30.18 851 25.13 -2.2 28 71 -6.8 19.7
21:40 1022 30.18 851 25.13 -2.4 27.7 71 -6.9 19.5
21:45 1022 30.18 851 25.13 -2.9 26.9 73 -7.1 19.2
21:50 1022 30.18 851 25.13 -3.3 26 74 -7.2 19
21:55 1022 30.18 851 25.13 -3 26.6 73 -7.1 19.2
22:00 1022 30.18 851 25.13 -2.1 28.2 69 -7.1 19.2
22:05 1022 30.18 851 25.13 -1.8 28.7 69 -6.8 19.8
22:10 1022 30.18 851 25.13 -2.2 28 70 -7 19.5
22:15 1022 30.18 851 25.13 -2.6 27.4 71 -7.1 19.3
22:20 1022 30.18 851 25.13 -2 28.4 69 -7 19.4
22:25 1022 30.18 851 25.13 -2.2 28.1 69 -7.1 19.3
22:30 1022 30.18 851 25.13 -2.4 27.7 71 -7 19.5
22:35 1022 30.18 851 25.13 -2.4 27.6 70 -7.1 19.2
22:40 1022 30.18 851 25.13 -2.5 27.4 72 -7 19.4
22:45 1022 30.18 851 25.13 -3 26.6 72 -7.3 18.9
22:50 1022 30.18 851 25.13 -3.4 25.9 72 -7.7 18.1
22:55 1022 30.18 851 25.13 -3.2 26.3 73 -7.4 18.6
23:00 1022 30.18 851 25.13 -2.9 26.7 71 -7.5 18.5
23:05 1022 30.18 851 25.13 -3.6 25.6 73 -7.7 18.1
23:10 1022 30.18 851 25.13 -4.3 24.2 76 -7.9 17.7
23:15 1022 30.18 851 25.13 -3.9 25 74 -7.8 17.9
23:20 1022 30.18 851 25.13 -3.3 26 71 -7.8 17.9
23:25 1022 30.18 851 25.13 -3.8 25.2 71 -8.3 17.1
23:30 1022 30.18 851 25.13 -4.6 23.7 75 -8.3 17
23:35 1022 30.18 851 25.13 -4 24.9 72 -8.2 17.2
23:40 1022 30.18 851 25.13 -3.4 25.9 70 -8.1 17.4
23:45 1022 30.18 851 25.13 -3.2 26.2 70 -7.9 17.8
23:50 1022 30.18 851 25.13 -3 26.6 69 -7.9 17.7
23:55 1022 30.18 851 25.13 -3.5 25.7 69 -8.4 17
24:00 1022 30.18 851 25.13 -4.2 24.4 71 -8.7 16.3